Farwell, Minnesota
Current Conditions -  °F | °C
As of 2:53 AM on Wednesday 28 Jan 2015 (Local Time) from KAXN Reporting Station
Overcast Overcast  
Wind Chill: 21°   Ceiling: 600
Heat Index: 32°   Visibility: 7mi
Dew Point: 29°   Wind: 17mph
Humidity: 88%   Direction: 150°SSE
Pressure: 29.92"   Gusts: NA
Location:  45.75°N, 95.62°W
Report Text: KAXN 280853Z AUTO 15015KT 7SM OVC006 00/M02 A2992 RMK AO2 SLP151 T00001017 58019
Loading
Personal Weather Stations






























Interactive Weather Map New forecast layout! Learn more

10-Day Weather Forecast

Advertisements
Track Severe Weather on mobile